Kigali, Rwanda
Current Conditions -  °F | °C
As of 2:30 PM on Friday 24 Oct 2014 (Local Time) from HRYR Reporting Station
Thunderstorm Thunderstorm  
Wind Chill: 72°   Ceiling: 2500
Heat Index: 72°   Visibility: 6mi
Dew Point: 64°   Wind: 9mph
Humidity: 78%   Direction: 130°SE
Pressure: 30.03"   Gusts: NA
Location:  1.94°S, 30.06°E
Report Text: HRYR 241230Z 13008KT 9999 -TSRA SCT023CB BKN025TCU 22/18 Q1017 NOSIG
Loading
Personal Weather Stations






























Interactive Weather Map
Tropical Storm Tracking
New forecast layout! Learn more

10-Day Weather Forecast

Advertisements
Track Severe Weather on mobile